createdAt,value
2018-12-29T00:00:24.714Z,8.42
2018-12-29T00:01:34.796Z,8.43
2018-12-29T00:02:44.618Z,8.29
2018-12-29T00:03:54.702Z,8.36
2018-12-29T00:05:05.003Z,8.39
2018-12-29T00:06:15.086Z,8.39
2018-12-29T00:07:25.174Z,8.36
2018-12-29T00:08:35.246Z,8.5
2018-12-29T00:09:45.334Z,8.39
2018-12-29T00:10:55.172Z,8.39
2018-12-29T00:12:05.594Z,8.46
2018-12-29T00:13:15.658Z,8.5
2018-12-29T00:14:25.494Z,8.4
2018-12-29T00:15:35.301Z,8.42
2018-12-29T00:16:45.379Z,8.35
2018-12-29T00:17:55.204Z,8.46
2018-12-29T00:19:05.279Z,8.35
2018-12-29T00:20:15.390Z,8.4
2018-12-29T00:21:25.245Z,8.42
2018-12-29T00:22:35.331Z,8.52
2018-12-29T00:23:45.410Z,8.44
2018-12-29T00:24:55.506Z,8.44
2018-12-29T00:26:05.625Z,8.4
2018-12-29T00:27:15.696Z,8.36
2018-12-29T00:28:25.511Z,8.35
2018-12-29T00:29:35.575Z,8.4
2018-12-29T00:30:45.466Z,8.36
2018-12-29T00:31:55.568Z,8.36
2018-12-29T00:33:07.385Z,8.31
2018-12-29T00:34:17.499Z,8.39
2018-12-29T00:35:27.582Z,8.31
2018-12-29T00:36:37.665Z,8.32
2018-12-29T00:37:47.487Z,8.25
2018-12-29T00:38:57.577Z,8.21
2018-12-29T00:40:07.641Z,8.31
2018-12-29T00:41:17.468Z,8.31
2018-12-29T00:42:27.520Z,8.28
2018-12-29T00:43:37.600Z,8.35
2018-12-29T00:44:47.682Z,8.26
2018-12-29T00:45:57.790Z,8.29
2018-12-29T00:47:07.932Z,8.32
2018-12-29T00:48:18.005Z,8.29
2018-12-29T00:49:27.833Z,8.35
2018-12-29T00:50:37.913Z,8.22
2018-12-29T00:51:47.988Z,8.26
2018-12-29T00:52:58.058Z,8.28
2018-12-29T00:54:07.963Z,8.29
2018-12-29T00:55:18.044Z,8.32
2018-12-29T00:56:28.151Z,8.28
2018-12-29T00:57:37.964Z,8.31
2018-12-29T00:58:48.043Z,8.39
2018-12-29T00:59:58.776Z,8.31
2018-12-29T01:01:09.206Z,8.42
2018-12-29T01:02:20.341Z,8.36
2018-12-29T01:03:30.419Z,8.35
2018-12-29T01:04:40.487Z,8.43
2018-12-29T01:05:50.572Z,8.44
2018-12-29T01:07:00.678Z,8.44
2018-12-29T01:08:10.749Z,8.47
2018-12-29T01:09:20.838Z,8.47
2018-12-29T01:10:30.889Z,8.53
2018-12-29T01:11:40.684Z,8.54
2018-12-29T01:12:50.775Z,8.46
2018-12-29T01:14:02.056Z,8.58
2018-12-29T01:15:15.138Z,8.49
2018-12-29T01:16:24.951Z,8.58
2018-12-29T01:17:35.024Z,8.67
2018-12-29T01:18:45.099Z,8.6
2018-12-29T01:19:55.163Z,8.68
2018-12-29T01:21:04.971Z,8.69
2018-12-29T01:22:15.023Z,8.71
2018-12-29T01:23:25.071Z,8.72
2018-12-29T01:24:35.122Z,8.77
2018-12-29T01:25:45.254Z,8.79
2018-12-29T01:26:55.336Z,8.71
2018-12-29T01:28:05.561Z,8.76
2018-12-29T01:29:15.665Z,8.74
2018-12-29T01:30:25.747Z,8.82
2018-12-29T01:31:35.822Z,8.79
2018-12-29T01:32:45.435Z,8.82
2018-12-29T01:33:55.522Z,8.87
2018-12-29T01:35:05.315Z,8.82
2018-12-29T01:36:15.395Z,8.83
2018-12-29T01:37:25.579Z,8.83
2018-12-29T01:38:35.661Z,8.79
2018-12-29T01:39:45.481Z,8.8
2018-12-29T01:40:55.577Z,8.64
2018-12-29T01:42:05.663Z,8.79
2018-12-29T01:43:15.468Z,8.83
2018-12-29T01:44:25.542Z,8.76
2018-12-29T01:45:35.346Z,8.85
2018-12-29T01:46:45.404Z,8.77
2018-12-29T01:47:55.466Z,8.85
2018-12-29T01:49:06.567Z,8.76
2018-12-29T01:50:16.393Z,8.82
2018-12-29T01:51:26.463Z,8.79
2018-12-29T01:52:36.536Z,8.76
2018-12-29T01:53:46.594Z,8.79
2018-12-29T01:54:56.704Z,8.83
2018-12-29T01:56:06.791Z,8.72
2018-12-29T01:57:16.616Z,8.79
2018-12-29T01:58:26.678Z,8.82
2018-12-29T01:59:36.749Z,8.69
2018-12-29T02:00:46.826Z,8.71
2018-12-29T02:01:56.914Z,8.71
2018-12-29T02:03:07.092Z,8.69
2018-12-29T02:04:17.170Z,8.8
2018-12-29T02:05:27.268Z,8.72
2018-12-29T02:06:37.225Z,8.76
2018-12-29T02:07:47.288Z,8.72
2018-12-29T02:08:57.362Z,8.8
2018-12-29T02:10:07.430Z,8.71
2018-12-29T02:11:17.522Z,8.85
2018-12-29T02:12:27.619Z,8.74
2018-12-29T02:13:37.746Z,8.72
2018-12-29T02:14:47.839Z,8.71
2018-12-29T02:15:57.657Z,8.79
2018-12-29T02:17:07.735Z,8.77
2018-12-29T02:18:17.808Z,8.72
2018-12-29T02:19:27.908Z,8.8
2018-12-29T02:20:37.978Z,8.72
2018-12-29T02:21:48.033Z,8.72
2018-12-29T02:22:58.097Z,8.8
2018-12-29T02:24:08.226Z,8.85
2018-12-29T02:25:18.276Z,8.82
2018-12-29T02:26:28.338Z,8.71
2018-12-29T02:27:38.399Z,8.79
2018-12-29T02:28:48.201Z,8.8
2018-12-29T02:29:58.065Z,8.69
2018-12-29T02:31:08.096Z,8.85
2018-12-29T02:32:17.912Z,8.74
2018-12-29T02:33:28.006Z,8.68
2018-12-29T02:34:38.091Z,8.85
2018-12-29T02:35:47.899Z,8.8
2018-12-29T02:36:57.983Z,8.72
2018-12-29T02:38:08.115Z,8.69
2018-12-29T02:39:18.226Z,8.83
2018-12-29T02:40:28.319Z,8.79
2018-12-29T02:41:38.379Z,8.77
2018-12-29T02:42:48.457Z,8.72
2018-12-29T02:43:58.522Z,8.89
2018-12-29T02:45:08.588Z,8.82
2018-12-29T02:46:18.416Z,8.82
2018-12-29T02:47:28.500Z,8.8
2018-12-29T02:48:38.579Z,8.8
2018-12-29T02:49:48.664Z,8.76
2018-12-29T02:50:58.740Z,8.8
2018-12-29T02:52:08.806Z,8.83
2018-12-29T02:53:18.615Z,8.77
2018-12-29T02:54:28.694Z,8.8
2018-12-29T02:55:38.800Z,8.8
2018-12-29T02:56:48.863Z,8.8
2018-12-29T02:57:58.694Z,8.67
2018-12-29T02:59:08.529Z,8.8
2018-12-29T03:00:19.080Z,8.8
2018-12-29T03:01:29.219Z,8.77
2018-12-29T03:02:39.287Z,8.74
2018-12-29T03:35:04.046Z,6.8
2018-12-29T03:36:13.940Z,6.72
2018-12-29T03:37:23.813Z,6.67
2018-12-29T03:38:33.363Z,6.72
2018-12-29T03:39:43.430Z,6.8
2018-12-29T03:40:53.501Z,6.85
2018-12-29T03:42:03.579Z,6.79
2018-12-29T03:43:13.770Z,6.98
2018-12-29T03:44:23.854Z,7
2018-12-29T03:45:33.940Z,7.15
2018-12-29T03:46:44.037Z,7.15
2018-12-29T03:47:54.106Z,7.16
2018-12-29T03:49:03.918Z,7.4
2018-12-29T03:50:13.986Z,7.37
2018-12-29T03:51:24.058Z,7.52
2018-12-29T03:52:34.128Z,7.58
2018-12-29T03:53:44.180Z,7.54
2018-12-29T03:54:54.247Z,7.61
2018-12-29T03:56:04.092Z,7.71
2018-12-29T03:57:13.655Z,7.73
2018-12-29T03:58:23.744Z,7.74
2018-12-29T03:59:33.889Z,7.8
2018-12-29T04:00:43.962Z,7.85
2018-12-29T04:01:54.033Z,7.78
2018-12-29T04:03:04.097Z,7.91
2018-12-29T04:04:14.178Z,7.88
2018-12-29T04:05:24.096Z,7.91
2018-12-29T04:06:33.902Z,8.03
2018-12-29T04:07:43.745Z,7.88
2018-12-29T04:08:53.809Z,8.04
2018-12-29T04:10:04.133Z,8.06
2018-12-29T04:11:14.196Z,8.03
2018-12-29T04:12:24.265Z,7.98
2018-12-29T04:13:34.374Z,8.04
2018-12-29T04:14:44.466Z,8.07
2018-12-29T04:16:02.824Z,8.03
2018-12-29T04:17:12.891Z,8.01
2018-12-29T04:18:22.961Z,8.03
2018-12-29T04:19:32.758Z,7.98
2018-12-29T04:20:42.863Z,7.98
2018-12-29T04:21:52.684Z,8.07
2018-12-29T04:23:04.746Z,8.03
2018-12-29T04:24:14.558Z,7.98
2018-12-29T04:25:24.376Z,8.04
2018-12-29T04:26:34.434Z,8.01
2018-12-29T04:27:44.236Z,7.99
2018-12-29T04:28:54.056Z,7.98
2018-12-29T04:30:04.132Z,8.04
2018-12-29T04:31:14.227Z,8.03
2018-12-29T04:32:24.286Z,7.88
2018-12-29T04:33:34.424Z,7.82
2018-12-29T04:34:44.499Z,7.89
2018-12-29T04:35:54.549Z,7.8
2018-12-29T04:37:04.613Z,7.73
2018-12-29T04:38:14.668Z,7.8
2018-12-29T04:39:24.734Z,7.75
2018-12-29T04:40:34.799Z,7.75
2018-12-29T04:41:44.602Z,7.68
2018-12-29T04:42:54.645Z,7.7
2018-12-29T04:44:04.708Z,7.7
2018-12-29T04:45:14.773Z,7.64
2018-12-29T04:46:24.833Z,7.58
2018-12-29T04:47:34.633Z,7.49
2018-12-29T04:48:44.422Z,7.54
2018-12-29T04:49:54.508Z,7.55
2018-12-29T04:51:04.544Z,7.44
2018-12-29T04:52:14.611Z,7.49
2018-12-29T04:53:24.163Z,7.39
2018-12-29T04:54:34.232Z,7.37
2018-12-29T04:55:44.040Z,7.41
2018-12-29T04:56:54.110Z,7.33
2018-12-29T04:58:04.165Z,7.26
2018-12-29T04:59:14.214Z,7.23
2018-12-29T05:00:23.778Z,7.19
2018-12-29T05:01:33.833Z,7.27
2018-12-29T05:02:43.371Z,7.26
2018-12-29T05:03:53.433Z,7.19
2018-12-29T05:05:03.498Z,7.12
2018-12-29T05:06:13.574Z,7.12
2018-12-29T05:07:23.140Z,7.13
2018-12-29T05:08:33.232Z,7.05
2018-12-29T05:09:43.316Z,7.09
2018-12-29T05:10:53.381Z,7.05
2018-12-29T05:12:03.431Z,6.94
2018-12-29T05:13:13.019Z,6.94
2018-12-29T05:14:22.821Z,7.05
2018-12-29T05:15:32.627Z,7.04
2018-12-29T05:16:42.709Z,7.13
2018-12-29T05:17:52.767Z,7.09
2018-12-29T05:19:02.839Z,7.09
2018-12-29T05:20:12.659Z,6.94
2018-12-29T05:21:22.723Z,6.98
2018-12-29T05:22:32.788Z,7.09
2018-12-29T05:23:42.849Z,7.11
2018-12-29T05:24:52.913Z,7.05
2018-12-29T05:26:02.514Z,7.09
2018-12-29T05:27:12.556Z,7.13
2018-12-29T05:28:22.618Z,7.09
2018-12-29T05:29:32.677Z,7.11
2018-12-29T05:30:42.468Z,7.21
2018-12-29T05:31:52.522Z,7.19
2018-12-29T05:33:02.313Z,7.09
2018-12-29T05:34:12.116Z,7.15
2018-12-29T05:35:22.183Z,7.09
2018-12-29T05:36:32.248Z,7.11
2018-12-29T05:37:42.057Z,7.18
2018-12-29T05:38:52.110Z,7.26
2018-12-29T05:40:02.171Z,7.16
2018-12-29T05:41:11.991Z,7.21
2018-12-29T05:42:21.803Z,7.18
2018-12-29T05:43:31.699Z,7.23
2018-12-29T05:44:41.751Z,7.15
2018-12-29T05:45:51.823Z,7.18
2018-12-29T05:47:01.879Z,7.23
2018-12-29T05:48:11.683Z,7.23
2018-12-29T05:49:21.752Z,7.22
2018-12-29T05:50:31.811Z,7.26
2018-12-29T05:51:41.622Z,7.27
2018-12-29T05:52:51.670Z,7.23
2018-12-29T05:54:01.739Z,7.23
2018-12-29T05:55:11.532Z,7.26
2018-12-29T05:56:22.532Z,7.3
2018-12-29T05:57:32.323Z,7.31
2018-12-29T05:58:42.399Z,7.23
2018-12-29T05:59:52.495Z,7.21
2018-12-29T06:01:02.300Z,7.27
2018-12-29T06:02:12.352Z,7.22
2018-12-29T06:03:22.148Z,7.31
2018-12-29T06:04:32.201Z,7.34
2018-12-29T06:05:42.263Z,7.39
2018-12-29T06:06:52.352Z,7.39
2018-12-29T06:08:02.387Z,7.37
2018-12-29T06:09:12.472Z,7.33
2018-12-29T06:10:22.546Z,7.45
2018-12-29T06:11:32.615Z,7.44
2018-12-29T06:12:42.686Z,7.39
2018-12-29T06:13:53.095Z,7.47
2018-12-29T06:15:03.155Z,7.52
2018-12-29T06:16:12.977Z,7.55
2018-12-29T06:17:23.029Z,7.48
2018-12-29T06:18:33.142Z,7.54
2018-12-29T06:19:43.204Z,7.58
2018-12-29T06:20:53.007Z,7.58
2018-12-29T06:22:03.054Z,7.59
2018-12-29T06:23:13.112Z,7.59
2018-12-29T06:24:23.173Z,7.68
2018-12-29T06:25:33.265Z,7.68
2018-12-29T06:26:43.372Z,7.73
2018-12-29T06:27:53.190Z,7.71
2018-12-29T06:29:03.294Z,7.78
2018-12-29T06:30:13.404Z,7.89
2018-12-29T06:31:23.456Z,7.85
2018-12-29T06:32:33.262Z,7.89
2018-12-29T06:33:43.316Z,7.85
2018-12-29T06:34:53.373Z,7.85
2018-12-29T06:36:02.928Z,7.92
2018-12-29T06:37:12.735Z,7.85
2018-12-29T06:38:22.793Z,7.85
2018-12-29T06:39:32.617Z,7.88
2018-12-29T06:40:42.663Z,7.89
2018-12-29T06:41:52.746Z,7.78
2018-12-29T06:43:03.096Z,7.88
2018-12-29T06:44:13.179Z,7.85
2018-12-29T06:45:23.253Z,7.85
2018-12-29T06:46:39.758Z,7.82
2018-12-29T06:47:49.829Z,7.86
2018-12-29T06:48:59.892Z,7.83
2018-12-29T06:50:09.725Z,7.89
2018-12-29T06:51:19.774Z,7.89
2018-12-29T06:52:29.594Z,7.88
2018-12-29T06:53:39.464Z,7.89
2018-12-29T06:54:49.518Z,7.82
2018-12-29T06:55:59.579Z,7.89
2018-12-29T06:57:09.645Z,7.89
2018-12-29T06:58:19.715Z,7.82
2018-12-29T06:59:29.803Z,7.75
2018-12-29T07:00:39.874Z,7.78
2018-12-29T07:01:49.930Z,7.77
2018-12-29T07:03:00.029Z,7.73
2018-12-29T07:04:09.857Z,7.73
2018-12-29T07:05:19.907Z,7.7
2018-12-29T07:06:29.976Z,7.61
2018-12-29T07:07:40.297Z,7.61
2018-12-29T07:08:50.101Z,7.56
2018-12-29T07:09:59.983Z,7.64
2018-12-29T07:11:10.194Z,7.52
2018-12-29T07:12:19.740Z,7.49
2018-12-29T07:13:29.801Z,7.47
2018-12-29T07:14:39.937Z,7.44
2018-12-29T07:15:49.749Z,7.45
2018-12-29T07:17:00.866Z,7.31
2018-12-29T07:18:10.685Z,7.36
2018-12-29T07:19:20.752Z,7.39
2018-12-29T07:20:30.583Z,7.39
2018-12-29T07:21:40.629Z,7.36
2018-12-29T07:22:50.692Z,7.39
2018-12-29T07:24:00.769Z,7.4
2018-12-29T07:25:10.905Z,7.36
2018-12-29T07:26:20.969Z,7.34
2018-12-29T07:27:31.022Z,7.36
2018-12-29T07:28:40.825Z,7.34
2018-12-29T07:29:50.654Z,7.34
2018-12-29T07:31:00.430Z,7.23
2018-12-29T07:32:10.489Z,7.3
2018-12-29T07:33:20.283Z,7.27
2018-12-29T07:34:30.358Z,7.26
2018-12-29T07:35:40.435Z,7.26
2018-12-29T07:36:50.256Z,7.26
2018-12-29T07:37:59.799Z,7.29
2018-12-29T07:39:09.873Z,7.22
2018-12-29T07:40:19.953Z,7.23
2018-12-29T07:41:30.027Z,7.18
2018-12-29T07:42:40.108Z,7.22
2018-12-29T07:43:50.187Z,7.34
2018-12-29T07:45:00.417Z,7.33
2018-12-29T07:46:10.302Z,7.23
2018-12-29T07:47:20.347Z,7.22
2018-12-29T07:48:30.154Z,7.29
2018-12-29T07:49:40.227Z,7.34
2018-12-29T07:50:50.300Z,7.39
2018-12-29T07:52:00.279Z,7.34
2018-12-29T07:53:10.113Z,7.37
2018-12-29T07:54:20.173Z,7.37
2018-12-29T07:55:30.259Z,7.34
2018-12-29T07:56:40.115Z,7.39
2018-12-29T07:57:50.189Z,7.49
2018-12-29T07:59:00.358Z,7.55
2018-12-29T08:00:10.728Z,7.48
2018-12-29T08:01:21.124Z,7.61
2018-12-29T08:02:31.201Z,7.63
2018-12-29T08:03:41.248Z,7.7
2018-12-29T08:04:51.395Z,7.7
2018-12-29T08:06:02.706Z,7.68
2018-12-29T08:07:12.751Z,7.74
2018-12-29T08:08:22.806Z,7.77
2018-12-29T08:09:32.892Z,7.75
2018-12-29T08:10:43.757Z,7.78
2018-12-29T08:11:53.597Z,7.83
2018-12-29T08:13:03.402Z,7.8
2018-12-29T08:14:13.467Z,7.77
2018-12-29T08:15:23.534Z,7.86
2018-12-29T08:16:33.584Z,7.8
2018-12-29T08:17:43.162Z,7.8
2018-12-29T08:18:53.225Z,7.88
2018-12-29T08:20:03.289Z,7.89
2018-12-29T08:21:13.351Z,7.89
2018-12-29T08:22:24.236Z,7.91
2018-12-29T08:23:34.310Z,7.91
2018-12-29T08:24:44.151Z,7.89
2018-12-29T08:25:54.213Z,8.06
2018-12-29T08:27:03.776Z,8.04
2018-12-29T08:28:13.842Z,8.17
2018-12-29T08:29:23.883Z,8.1
2018-12-29T08:30:33.971Z,7.99
2018-12-29T08:31:44.057Z,7.98
2018-12-29T08:32:53.866Z,8.09
2018-12-29T08:34:03.696Z,8.1
2018-12-29T08:35:14.802Z,8.06
2018-12-29T08:36:24.359Z,8.11
2018-12-29T08:37:34.434Z,8.06
2018-12-29T08:38:44.526Z,8.11
2018-12-29T08:39:54.580Z,8.19
2018-12-29T08:41:04.405Z,8.16
2018-12-29T08:42:14.468Z,8.16
2018-12-29T08:43:24.280Z,8.22
2018-12-29T08:44:34.383Z,8.29
2018-12-29T08:45:44.481Z,8.26
2018-12-29T08:46:54.535Z,8.26
2018-12-29T08:48:09.916Z,8.32
2018-12-29T08:49:19.979Z,8.29
2018-12-29T08:50:30.061Z,8.26
2018-12-29T08:51:40.137Z,8.22
2018-12-29T08:52:50.207Z,8.32
2018-12-29T08:54:01.314Z,8.31
2018-12-29T08:55:11.402Z,8.31
2018-12-29T08:56:21.461Z,8.42
2018-12-29T08:57:31.527Z,8.31
2018-12-29T08:58:41.609Z,8.39
2018-12-29T08:59:51.733Z,8.43
2018-12-29T09:01:01.798Z,8.42
2018-12-29T09:02:11.878Z,8.47
2018-12-29T09:03:22.551Z,8.42
2018-12-29T09:04:32.422Z,8.42
2018-12-29T09:05:41.956Z,8.49
2018-12-29T09:06:52.040Z,8.5
2018-12-29T09:08:01.961Z,8.5
2018-12-29T09:09:12.036Z,8.47
2018-12-29T09:10:22.128Z,8.6
2018-12-29T09:11:31.956Z,8.65
2018-12-29T09:12:42.029Z,8.64
2018-12-29T09:13:51.717Z,8.65
2018-12-29T09:15:01.815Z,8.65
2018-12-29T09:16:11.891Z,8.77
2018-12-29T09:17:21.965Z,8.69
2018-12-29T09:18:32.021Z,8.86
2018-12-29T09:19:42.069Z,8.85
2018-12-29T09:20:52.141Z,8.85
2018-12-29T09:22:02.201Z,8.94
2018-12-29T09:23:11.764Z,8.94
2018-12-29T09:24:21.831Z,9.03
2018-12-29T09:25:31.917Z,9.11
2018-12-29T09:26:41.746Z,9.09
2018-12-29T09:27:51.822Z,9.26
2018-12-29T09:29:02.498Z,9.27
2018-12-29T09:30:12.605Z,9.32
2018-12-29T09:31:23.150Z,9.39
2018-12-29T09:32:33.244Z,9.37
2018-12-29T09:33:43.336Z,9.38
2018-12-29T09:34:53.163Z,9.42
2018-12-29T09:36:03.252Z,9.42
2018-12-29T09:37:13.402Z,9.42
2018-12-29T09:38:23.457Z,9.41
2018-12-29T09:39:33.532Z,9.45
2018-12-29T09:40:43.660Z,9.42
2018-12-29T09:41:53.656Z,9.39
2018-12-29T09:43:03.750Z,9.52
2018-12-29T09:44:14.132Z,9.41
2018-12-29T09:45:24.210Z,9.42
2018-12-29T09:46:34.006Z,9.47
2018-12-29T09:47:43.808Z,9.39
2018-12-29T09:48:53.874Z,9.53
2018-12-29T09:50:03.705Z,9.52
2018-12-29T09:51:13.771Z,9.5
2018-12-29T09:52:23.859Z,9.6
2018-12-29T09:53:33.916Z,9.62
2018-12-29T09:54:43.745Z,9.53
2018-12-29T09:55:53.807Z,9.6
2018-12-29T09:57:03.890Z,9.52
2018-12-29T09:58:13.710Z,9.42
2018-12-29T09:59:23.542Z,9.45
2018-12-29T10:00:33.630Z,9.39
2018-12-29T10:01:43.694Z,9.38
2018-12-29T10:02:53.782Z,9.41
2018-12-29T10:04:03.850Z,9.37
2018-12-29T10:05:14.078Z,9.34
2018-12-29T10:06:24.156Z,9.24
2018-12-29T10:07:33.964Z,9.39
2018-12-29T10:08:44.035Z,9.42
2018-12-29T10:09:54.119Z,9.56
2018-12-29T10:11:04.823Z,9.62
2018-12-29T10:12:14.884Z,9.53
2018-12-29T10:13:24.940Z,9.6
2018-12-29T10:14:35.011Z,9.66
2018-12-29T10:15:45.085Z,9.72
2018-12-29T10:16:55.159Z,9.84
2018-12-29T10:18:05.024Z,9.84
2018-12-29T10:19:14.853Z,9.96
2018-12-29T10:20:24.979Z,10.08
2018-12-29T10:21:35.049Z,10.11
2018-12-29T10:22:44.878Z,10.17
2018-12-29T10:23:54.970Z,10.21
2018-12-29T10:25:05.444Z,10.21
2018-12-29T10:26:15.506Z,10.31
2018-12-29T10:27:25.584Z,10.32
2018-12-29T10:28:35.383Z,10.35
2018-12-29T10:29:45.558Z,10.36
2018-12-29T10:30:55.650Z,10.63
2018-12-29T10:32:05.713Z,10.61
2018-12-29T10:33:15.796Z,10.77
2018-12-29T10:34:25.875Z,10.8
2018-12-29T10:35:36.054Z,10.77
2018-12-29T10:36:45.888Z,10.84
2018-12-29T10:37:55.961Z,10.84
2018-12-29T10:39:05.810Z,10.88
2018-12-29T10:40:15.913Z,10.88
2018-12-29T10:41:26.033Z,10.79
2018-12-29T10:42:36.102Z,10.85
2018-12-29T10:43:45.905Z,10.84
2018-12-29T10:44:55.728Z,10.79
2018-12-29T10:46:05.787Z,10.84
2018-12-29T10:47:15.616Z,10.87
2018-12-29T10:48:25.698Z,10.77
2018-12-29T10:49:35.798Z,10.85
2018-12-29T10:50:45.889Z,10.87
2018-12-29T10:51:55.975Z,10.95
2018-12-29T10:53:06.308Z,10.95
2018-12-29T10:54:16.395Z,11.06
2018-12-29T10:55:26.204Z,11.06
2018-12-29T10:56:36.307Z,11.1
2018-12-29T10:57:46.136Z,11
2018-12-29T10:58:56.212Z,10.95
2018-12-29T11:00:06.630Z,10.88
2018-12-29T11:01:17.877Z,10.85
2018-12-29T11:02:27.699Z,10.8
2018-12-29T11:03:37.761Z,10.63
2018-12-29T11:04:47.832Z,10.44
2018-12-29T11:05:57.894Z,10.33
2018-12-29T11:07:07.985Z,10.33
2018-12-29T11:08:18.163Z,10.35
2018-12-29T11:09:28.244Z,10.29
2018-12-29T11:10:38.308Z,10.21
2018-12-29T11:11:48.408Z,10.21
2018-12-29T11:12:58.544Z,10.18
2018-12-29T11:14:08.627Z,10.13
2018-12-29T11:15:19.111Z,10.11
2018-12-29T11:16:29.241Z,9.93
2018-12-29T11:17:47.413Z,9.81
2018-12-29T11:18:57.243Z,9.84
2018-12-29T11:20:07.077Z,9.84
2018-12-29T11:21:17.154Z,9.84
2018-12-29T11:22:27.008Z,9.84
2018-12-29T11:23:37.088Z,9.81
2018-12-29T11:24:46.923Z,9.92
2018-12-29T11:25:56.753Z,9.92
2018-12-29T11:27:06.831Z,9.99
2018-12-29T11:28:16.910Z,9.96
2018-12-29T11:29:27.027Z,10.02
2018-12-29T11:30:37.121Z,10.02
2018-12-29T11:31:47.269Z,9.99
2018-12-29T11:32:57.377Z,9.96
2018-12-29T11:34:07.546Z,10
2018-12-29T11:35:17.664Z,9.85
2018-12-29T11:36:34.273Z,9.98
2018-12-29T11:37:44.337Z,9.82
2018-12-29T11:38:54.427Z,9.82
2018-12-29T11:40:04.255Z,9.85
2018-12-29T11:41:14.333Z,9.81
2018-12-29T11:42:24.423Z,9.78
2018-12-29T11:43:34.514Z,9.81
2018-12-29T11:44:44.624Z,9.72
2018-12-29T11:45:54.441Z,9.77
2018-12-29T11:47:04.539Z,9.63
2018-12-29T11:48:14.368Z,9.71
2018-12-29T11:49:24.501Z,9.63
2018-12-29T11:50:34.647Z,9.57
2018-12-29T11:51:44.791Z,9.59
2018-12-29T11:52:54.925Z,9.56
2018-12-29T11:54:04.797Z,9.56
2018-12-29T11:55:14.896Z,9.47
2018-12-29T11:56:25.015Z,9.42
2018-12-29T11:57:35.221Z,9.41
2018-12-29T11:58:45.053Z,9.35
2018-12-29T11:59:55.236Z,9.27
2018-12-29T12:01:06.067Z,9.26
2018-12-29T12:02:24.273Z,9.19
2018-12-29T12:03:34.392Z,9.19
2018-12-29T12:04:44.583Z,9
2018-12-29T12:05:54.470Z,9.11
2018-12-29T12:07:04.698Z,9.04
2018-12-29T12:08:14.839Z,8.9
2018-12-29T12:09:24.961Z,9
2018-12-29T12:10:35.793Z,8.83
2018-12-29T12:11:45.921Z,8.89
2018-12-29T12:12:55.639Z,8.83
2018-12-29T12:14:05.757Z,8.82
2018-12-29T12:15:15.924Z,8.77
2018-12-29T12:16:26.053Z,8.71
2018-12-29T12:17:36.219Z,8.62
2018-12-29T12:18:46.357Z,8.62
2018-12-29T12:19:56.493Z,8.58
2018-12-29T12:21:06.692Z,8.54
2018-12-29T12:22:16.820Z,8.57
2018-12-29T12:23:26.957Z,8.6
2018-12-29T12:24:37.121Z,8.61
2018-12-29T12:25:47.291Z,8.65
2018-12-29T12:26:58.678Z,8.57
2018-12-29T12:28:08.806Z,8.61
2018-12-29T12:29:19.640Z,8.58
2018-12-29T12:30:29.810Z,8.52
2018-12-29T12:31:41.388Z,8.58
2018-12-29T12:32:51.318Z,8.54
2018-12-29T12:34:02.144Z,8.46
2018-12-29T12:35:12.871Z,8.5
2018-12-29T12:36:23.001Z,8.42
2018-12-29T12:37:33.522Z,8.52
2018-12-29T12:38:43.713Z,8.4
2018-12-29T12:39:53.678Z,8.34
2018-12-29T12:41:03.824Z,8.25
2018-12-29T12:42:13.717Z,8.24
2018-12-29T12:43:24.476Z,8.16
2018-12-29T12:44:35.054Z,7.96
2018-12-29T12:45:45.812Z,8.01
2018-12-29T12:46:55.918Z,8.04
2018-12-29T12:48:10.189Z,8.03
2018-12-29T12:49:20.330Z,7.93
2018-12-29T12:50:30.534Z,7.99
2018-12-29T12:51:40.844Z,7.92
2018-12-29T12:52:51.467Z,7.89
2018-12-29T12:54:01.163Z,7.89
2018-12-29T12:55:11.311Z,7.82
2018-12-29T12:56:21.521Z,7.83
2018-12-29T12:57:32.489Z,7.88
2018-12-29T12:58:43.904Z,7.85
2018-12-29T12:59:54.730Z,7.75
2018-12-29T13:01:06.215Z,7.71
2018-12-29T13:02:16.744Z,7.77
2018-12-29T13:03:27.229Z,7.74
2018-12-29T13:04:37.398Z,7.67
2018-12-29T13:05:47.506Z,7.71
2018-12-29T13:06:57.633Z,7.68
2018-12-29T13:08:07.789Z,7.64
2018-12-29T13:09:17.919Z,7.63
2018-12-29T13:10:28.088Z,7.61
2018-12-29T13:11:38.008Z,7.52
2018-12-29T13:12:48.121Z,7.52
2018-12-29T13:13:57.721Z,7.54
2018-12-29T13:15:07.606Z,7.54
2018-12-29T13:16:17.479Z,7.58
2018-12-29T13:17:27.637Z,7.56
2018-12-29T13:18:37.507Z,7.44
2018-12-29T13:19:47.393Z,7.48
2018-12-29T13:20:57.531Z,7.4
2018-12-29T13:22:08.414Z,7.34
2018-12-29T13:23:18.302Z,7.39
2018-12-29T13:24:28.443Z,7.48
2018-12-29T13:25:38.314Z,7.45
2018-12-29T13:26:48.475Z,7.39
2018-12-29T13:27:58.596Z,7.49
2018-12-29T13:29:08.491Z,7.49
2018-12-29T13:30:18.909Z,7.48
2018-12-29T13:31:30.034Z,7.44
2018-12-29T13:32:41.255Z,7.54
2018-12-29T13:33:51.391Z,7.52
2018-12-29T13:35:01.523Z,7.54
2018-12-29T13:36:11.753Z,7.51
2018-12-29T13:37:21.731Z,7.52
2018-12-29T13:38:31.869Z,7.47
2018-12-29T13:39:42.003Z,7.54
2018-12-29T13:40:51.860Z,7.55
2018-12-29T13:42:01.969Z,7.51
2018-12-29T13:43:12.158Z,7.48
2018-12-29T13:44:22.330Z,7.48
2018-12-29T13:45:32.430Z,7.48
2018-12-29T13:46:42.569Z,7.51
2018-12-29T13:47:52.681Z,7.48
2018-12-29T13:49:04.793Z,7.4
2018-12-29T13:50:14.914Z,7.48
2018-12-29T13:51:25.019Z,7.45
2018-12-29T13:52:35.136Z,7.41
2018-12-29T13:53:45.009Z,7.47
2018-12-29T13:54:55.168Z,7.55
2018-12-29T13:56:05.000Z,7.55
2018-12-29T13:57:15.116Z,7.55
2018-12-29T13:58:25.261Z,7.54
2018-12-29T13:59:35.866Z,7.47
2018-12-29T14:00:47.878Z,7.47
2018-12-29T14:01:57.763Z,7.59
2018-12-29T14:03:08.001Z,7.58
2018-12-29T14:04:18.142Z,7.49
2018-12-29T14:05:28.269Z,7.49
2018-12-29T14:06:38.473Z,7.44
2018-12-29T14:07:48.604Z,7.47
2018-12-29T14:08:58.473Z,7.49
2018-12-29T14:10:08.866Z,7.48
2018-12-29T14:11:19.002Z,7.48
2018-12-29T14:12:29.134Z,7.36
2018-12-29T14:13:38.992Z,7.45
2018-12-29T14:14:49.135Z,7.31
2018-12-29T14:15:59.254Z,7.36
2018-12-29T14:17:09.145Z,7.31
2018-12-29T14:18:19.067Z,7.27
2018-12-29T14:19:35.918Z,7.29
2018-12-29T14:20:46.036Z,7.23
2018-12-29T14:21:55.612Z,7.23
2018-12-29T14:23:05.529Z,7.23
2018-12-29T14:24:15.878Z,7.22
2018-12-29T14:25:27.010Z,7.21
2018-12-29T14:26:37.889Z,7.27
2018-12-29T14:27:48.155Z,7.23
2018-12-29T14:28:58.289Z,7.26
2018-12-29T14:30:08.146Z,7.21
2018-12-29T14:31:18.234Z,7.21
2018-12-29T14:32:28.374Z,7.19
2018-12-29T14:33:38.520Z,7.21
2018-12-29T14:34:48.662Z,7.26
2018-12-29T14:35:58.834Z,7.26
2018-12-29T14:37:08.671Z,7.22
2018-12-29T14:38:18.544Z,7.22
2018-12-29T14:39:28.706Z,7.18
2018-12-29T14:40:38.835Z,7.11
2018-12-29T14:41:50.480Z,7.18
2018-12-29T14:43:00.709Z,7.12
2018-12-29T14:44:10.864Z,7.05
2018-12-29T14:45:20.976Z,7.03
2018-12-29T14:46:31.095Z,7.03
2018-12-29T14:47:41.207Z,7.01
2018-12-29T14:48:51.322Z,7
2018-12-29T14:50:01.450Z,6.94
2018-12-29T14:51:11.300Z,6.94
2018-12-29T14:52:21.426Z,6.8
2018-12-29T14:53:32.287Z,6.78
2018-12-29T14:54:43.339Z,6.83
2018-12-29T14:55:53.750Z,6.79
2018-12-29T14:57:03.644Z,6.8
2018-12-29T14:58:13.237Z,6.7
2018-12-29T14:59:23.365Z,6.68
2018-12-29T15:00:33.529Z,6.68
2018-12-29T15:01:43.634Z,6.6
2018-12-29T15:02:53.758Z,6.55
2018-12-29T15:04:03.880Z,6.51
2018-12-29T15:05:13.504Z,6.57
2018-12-29T15:06:23.131Z,6.58
2018-12-29T15:07:33.240Z,6.46
2018-12-29T15:08:43.401Z,6.44
2018-12-29T15:09:53.534Z,6.44
2018-12-29T15:11:04.397Z,6.49
2018-12-29T15:12:14.873Z,6.37
2018-12-29T15:13:25.025Z,6.49
2018-12-29T15:14:35.181Z,6.46
2018-12-29T15:15:46.487Z,6.46
2018-12-29T15:16:57.584Z,6.34
2018-12-29T15:18:08.526Z,6.39
2018-12-29T15:19:19.118Z,6.39
2018-12-29T15:20:31.444Z,6.37
2018-12-29T15:21:42.556Z,6.31
2018-12-29T15:22:52.442Z,6.33
2018-12-29T15:24:02.449Z,6.24
2018-12-29T15:25:15.000Z,6.25
2018-12-29T15:26:25.812Z,6.18
2018-12-29T15:27:35.957Z,6.1
2018-12-29T15:28:46.144Z,6.17
2018-12-29T15:29:56.313Z,6.07
2018-12-29T15:31:07.097Z,6.15
2018-12-29T15:32:17.909Z,6.02
2018-12-29T15:33:28.053Z,6
2018-12-29T15:34:38.235Z,6
2018-12-29T15:35:48.382Z,5.99
2018-12-29T15:36:58.946Z,6.02
2018-12-29T15:38:09.876Z,5.91
2018-12-29T15:39:20.032Z,5.98
2018-12-29T15:40:30.251Z,5.88
2018-12-29T15:41:40.899Z,6.06
2018-12-29T15:42:51.026Z,5.95
2018-12-29T15:44:01.811Z,5.98
2018-12-29T15:45:11.751Z,6.05
2018-12-29T15:46:21.933Z,6.06
2018-12-29T15:47:32.781Z,6
2018-12-29T15:48:42.747Z,6.03
2018-12-29T15:50:00.036Z,5.99
2018-12-29T15:51:10.285Z,6.03
2018-12-29T15:52:21.071Z,6.05
2018-12-29T15:53:31.844Z,6.02
2018-12-29T15:54:42.796Z,5.88
2018-12-29T15:55:53.709Z,6
2018-12-29T15:57:04.410Z,6.02
2018-12-29T15:58:14.657Z,6
2018-12-29T15:59:24.813Z,6.02
2018-12-29T16:00:35.218Z,5.98
2018-12-29T16:01:45.755Z,6.05
2018-12-29T16:02:55.946Z,6
2018-12-29T16:04:07.691Z,6
2018-12-29T16:05:18.487Z,6.06
2018-12-29T16:06:29.510Z,6.05
2018-12-29T16:07:39.675Z,5.98